Time;durP1;ratioP1;P1;durP2;ratioP2;P2;SDS_P1;SDS_P2;PMS_P1;PMS_P2;Temp;Humidity;BMP_temperature;BMP_pressure;BME280_temperature;BME280_humidity;BME280_pressure;Samples;Min_cycle;Max_cycle;Signal;HPM_P1;HPM_P2
2023/08/23 00:01:03;;;;;;;3.70;1.60;;;;;;;;;;5076740;28;20778;-70
2023/08/23 00:03:28;;;;;;;3.50;1.60;;;;;;;;;;5078929;28;20717;-70
2023/08/23 00:05:53;;;;;;;5.07;1.83;;;;;;;;;;5074444;28;20282;-69
2023/08/23 00:08:19;;;;;;;3.78;1.20;;;;;;;;;;5074652;28;20305;-69
2023/08/23 00:10:44;;;;;;;2.83;1.60;;;;;;;;;;5080004;28;20391;-70
2023/08/23 00:13:09;;;;;;;4.00;1.70;;;;;;;;;;5071433;28;20699;-69
2023/08/23 00:15:40;;;;;;;4.60;1.90;;;;;;;;;;5071557;28;20275;-69
2023/08/23 00:18:05;;;;;;;3.53;1.80;;;;;;;;;;5071760;28;20271;-69
2023/08/23 00:20:31;;;;;;;4.85;1.88;;;;;;;;;;5072119;28;20549;-69
2023/08/23 00:22:56;;;;;;;4.10;1.67;;;;;;;;;;5071838;28;20056;-69
2023/08/23 00:25:21;;;;;;;3.57;1.90;;;;;;;;;;5073171;28;20029;-69
2023/08/23 00:27:46;;;;;;;4.13;1.77;;;;;;;;;;5072361;28;20742;-69
2023/08/23 00:30:12;;;;;;;4.57;1.80;;;;;;;;;;5073759;28;20675;-69
2023/08/23 00:32:37;;;;;;;4.07;1.70;;;;;;;;;;5072351;28;20059;-70
2023/08/23 00:35:02;;;;;;;4.23;1.73;;;;;;;;;;5073443;28;20033;-69
2023/08/23 00:37:28;;;;;;;4.35;2.20;;;;;;;;;;5072372;28;20313;-69
2023/08/23 00:39:53;;;;;;;2.85;1.60;;;;;;;;;;5073497;28;20021;-69
2023/08/23 00:42:18;;;;;;;3.45;1.70;;;;;;;;;;5072920;28;20024;-68
2023/08/23 00:44:43;;;;;;;3.13;1.70;;;;;;;;;;5070997;28;20103;-69
2023/08/23 00:47:09;;;;;;;4.03;1.87;;;;;;;;;;5073493;28;20074;-69
2023/08/23 00:49:34;;;;;;;3.42;1.52;;;;;;;;;;5077123;28;20302;-69
2023/08/23 00:52:01;;;;;;;3.13;1.58;;;;;;;;;;5076172;28;20048;-69
2023/08/23 00:54:26;;;;;;;3.83;1.60;;;;;;;;;;5078890;28;20032;-69
2023/08/23 00:56:51;;;;;;;4.97;2.10;;;;;;;;;;5075330;28;20367;-69
2023/08/23 00:59:17;;;;;;;2.40;1.45;;;;;;;;;;5080152;28;20307;-69
2023/08/23 01:01:43;;;;;;;3.10;1.80;;;;;;;;;;5042412;28;20306;-69
2023/08/23 01:04:08;;;;;;;3.97;1.80;;;;;;;;;;5043482;28;20051;-70
2023/08/23 01:06:53;;;;;;;4.05;1.98;;;;;;;;;;5045952;28;20957;-69
2023/08/23 01:09:37;;;;;;;4.10;1.90;;;;;;;;;;5036204;28;20044;-69
2023/08/23 01:12:14;;;;;;;3.03;1.83;;;;;;;;;;5043302;28;20082;-70
2023/08/23 01:14:51;;;;;;;4.07;2.17;;;;;;;;;;5038026;28;20482;-69
2023/08/23 01:17:18;;;;;;;6.80;2.20;;;;;;;;;;5073936;28;20016;-70
2023/08/23 01:19:50;;;;;;;2.85;1.73;;;;;;;;;;5089616;28;20049;-70
2023/08/23 01:22:19;;;;;;;4.50;2.05;;;;;;;;;;5089348;28;20102;-70
2023/08/23 01:24:45;;;;;;;3.92;1.73;;;;;;;;;;5088512;28;20123;-70
2023/08/23 01:27:10;;;;;;;5.43;1.85;;;;;;;;;;5085672;28;20107;-71
2023/08/23 01:29:36;;;;;;;4.65;2.47;;;;;;;;;;5063804;28;20081;-71
2023/08/23 01:32:24;;;;;;;5.32;2.30;;;;;;;;;;5032467;28;20858;-70
2023/08/23 01:34:55;;;;;;;5.28;2.15;;;;;;;;;;5027970;28;20045;-71
2023/08/23 01:37:22;;;;;;;2.75;1.65;;;;;;;;;;5068737;28;20028;-70
2023/08/23 01:39:48;;;;;;;3.28;1.75;;;;;;;;;;5079000;28;20025;-70
2023/08/23 01:42:14;;;;;;;3.80;1.60;;;;;;;;;;5074421;28;20041;-70
2023/08/23 01:44:43;;;;;;;4.18;1.77;;;;;;;;;;5075112;28;20021;-70
2023/08/23 01:47:08;;;;;;;4.57;2.10;;;;;;;;;;5035671;28;20020;-70
2023/08/23 01:49:33;;;;;;;3.75;1.83;;;;;;;;;;5043400;28;20031;-70
2023/08/23 01:51:58;;;;;;;3.15;1.70;;;;;;;;;;5044387;28;20024;-69
2023/08/23 01:54:24;;;;;;;3.38;2.15;;;;;;;;;;5025994;28;20873;-69
2023/08/23 01:56:49;;;;;;;4.50;2.40;;;;;;;;;;5034949;28;20138;-70
2023/08/23 01:59:14;;;;;;;9.50;2.20;;;;;;;;;;5048341;28;20335;-69
2023/08/23 02:01:39;;;;;;;5.37;2.27;;;;;;;;;;5042144;28;20063;-70
2023/08/23 02:04:05;;;;;;;3.10;1.67;;;;;;;;;;5045851;28;21199;-70
2023/08/23 02:06:30;;;;;;;3.80;1.98;;;;;;;;;;5049639;28;20335;-69
2023/08/23 02:08:55;;;;;;;4.10;2.00;;;;;;;;;;5048994;28;20138;-71
2023/08/23 02:11:20;;;;;;;5.43;1.85;;;;;;;;;;5047698;28;20874;-71
2023/08/23 02:13:46;;;;;;;3.40;2.13;;;;;;;;;;5034047;28;20020;-71
2023/08/23 02:16:11;;;;;;;3.47;1.80;;;;;;;;;;5031961;28;20035;-70
2023/08/23 02:18:36;;;;;;;3.40;1.80;;;;;;;;;;5031143;28;20302;-71
2023/08/23 02:21:01;;;;;;;3.40;2.00;;;;;;;;;;5031206;28;20026;-70
2023/08/23 02:23:27;;;;;;;4.38;2.38;;;;;;;;;;5034717;28;20300;-70
2023/08/23 02:25:52;;;;;;;5.13;2.50;;;;;;;;;;5042495;28;20025;-70
2023/08/23 02:28:17;;;;;;;3.78;2.38;;;;;;;;;;5037823;28;20887;-69
2023/08/23 02:30:43;;;;;;;4.63;2.60;;;;;;;;;;5033061;28;20123;-69
2023/08/23 02:33:08;;;;;;;3.90;2.28;;;;;;;;;;5049197;28;20405;-70
2023/08/23 02:35:33;;;;;;;6.18;2.63;;;;;;;;;;5065928;28;20055;-69
2023/08/23 02:38:01;;;;;;;5.03;2.47;;;;;;;;;;5092548;28;20050;-69
2023/08/23 02:40:26;;;;;;;5.18;2.97;;;;;;;;;;5091592;28;20028;-72
2023/08/23 02:42:55;;;;;;;4.78;2.80;;;;;;;;;;5092412;28;20386;-71
2023/08/23 02:45:20;;;;;;;4.82;2.80;;;;;;;;;;5083121;28;20149;-72
2023/08/23 02:47:45;;;;;;;5.38;2.83;;;;;;;;;;5084767;28;20024;-71
2023/08/23 02:50:11;;;;;;;4.80;3.30;;;;;;;;;;5083076;28;20107;-71
2023/08/23 02:52:36;;;;;;;6.57;3.13;;;;;;;;;;5092192;28;20031;-72
2023/08/23 02:55:02;;;;;;;7.57;3.43;;;;;;;;;;5077549;28;20278;-71
2023/08/23 02:57:27;;;;;;;4.90;3.20;;;;;;;;;;5081083;28;20817;-72
2023/08/23 02:59:52;;;;;;;4.37;3.13;;;;;;;;;;5091812;28;20012;-74
2023/08/23 03:02:17;;;;;;;7.13;3.47;;;;;;;;;;5087686;28;20302;-72
2023/08/23 03:04:42;;;;;;;5.23;2.97;;;;;;;;;;5072388;28;20362;-72
2023/08/23 03:07:08;;;;;;;6.28;3.28;;;;;;;;;;5072241;28;20773;-72
2023/08/23 03:09:33;;;;;;;5.53;3.03;;;;;;;;;;5078153;28;20028;-73
2023/08/23 03:11:58;;;;;;;4.77;3.30;;;;;;;;;;5072347;28;20028;-72
2023/08/23 03:14:23;;;;;;;7.50;3.93;;;;;;;;;;5085245;28;20266;-72
2023/08/23 03:16:49;;;;;;;6.27;3.53;;;;;;;;;;5080697;28;20777;-72
2023/08/23 03:19:14;;;;;;;5.20;3.30;;;;;;;;;;5076129;28;20362;-72
2023/08/23 03:21:39;;;;;;;5.38;2.83;;;;;;;;;;5080373;28;20281;-74
2023/08/23 03:24:04;;;;;;;4.63;2.88;;;;;;;;;;5075103;28;20020;-72
2023/08/23 03:26:30;;;;;;;3.88;2.67;;;;;;;;;;5039928;28;20976;-69
2023/08/23 03:28:55;;;;;;;4.85;3.20;;;;;;;;;;5029822;28;20032;-69
2023/08/23 03:31:20;;;;;;;5.50;3.00;;;;;;;;;;5046542;28;20936;-69
2023/08/23 03:33:45;;;;;;;8.82;3.22;;;;;;;;;;5046588;28;20127;-69
2023/08/23 03:36:11;;;;;;;5.05;2.92;;;;;;;;;;5057706;28;20038;-69
2023/08/23 03:38:36;;;;;;;6.10;3.05;;;;;;;;;;5089830;28;20062;-70
2023/08/23 03:41:01;;;;;;;5.97;2.83;;;;;;;;;;5089263;28;20020;-69
2023/08/23 03:43:26;;;;;;;5.85;2.97;;;;;;;;;;5089589;28;20263;-69
2023/08/23 03:45:52;;;;;;;5.43;3.28;;;;;;;;;;5086295;28;20063;-69
2023/08/23 03:48:17;;;;;;;6.57;3.20;;;;;;;;;;5088929;28;20030;-72
2023/08/23 03:50:43;;;;;;;4.25;2.75;;;;;;;;;;5085586;28;20682;-72
2023/08/23 03:53:08;;;;;;;4.82;2.97;;;;;;;;;;5086881;28;20082;-72
2023/08/23 03:55:35;;;;;;;6.35;2.78;;;;;;;;;;5080047;28;20028;-73
2023/08/23 03:58:00;;;;;;;4.95;3.15;;;;;;;;;;5091375;28;20027;-70
2023/08/23 04:00:26;;;;;;;5.55;2.80;;;;;;;;;;5091065;28;20008;-69
2023/08/23 04:02:51;;;;;;;5.70;2.85;;;;;;;;;;5090724;28;20433;-69
2023/08/23 04:05:17;;;;;;;6.07;3.75;;;;;;;;;;5090904;28;20016;-69
2023/08/23 04:07:42;;;;;;;4.13;2.75;;;;;;;;;;5088075;28;20028;-73
2023/08/23 04:10:07;;;;;;;5.33;3.37;;;;;;;;;;5091290;28;20078;-72
2023/08/23 04:12:33;;;;;;;4.40;3.15;;;;;;;;;;5074737;28;20286;-72
2023/08/23 04:14:58;;;;;;;6.23;3.17;;;;;;;;;;5081622;28;20109;-72
2023/08/23 04:17:24;;;;;;;7.03;3.30;;;;;;;;;;5079626;28;20316;-74
2023/08/23 04:19:49;;;;;;;5.20;2.80;;;;;;;;;;5080155;28;20282;-73
2023/08/23 04:22:14;;;;;;;9.18;3.55;;;;;;;;;;5089491;28;20029;-73
2023/08/23 04:24:39;;;;;;;5.13;3.50;;;;;;;;;;5088278;28;20032;-70
2023/08/23 04:27:05;;;;;;;7.87;3.60;;;;;;;;;;5082943;28;20317;-69
2023/08/23 04:29:30;;;;;;;4.90;3.75;;;;;;;;;;5083128;28;20311;-69
2023/08/23 04:31:55;;;;;;;6.80;3.90;;;;;;;;;;5076342;28;20017;-69
2023/08/23 04:34:20;;;;;;;6.00;3.60;;;;;;;;;;5088961;28;20760;-72
2023/08/23 04:36:46;;;;;;;5.97;3.53;;;;;;;;;;5086081;28;21077;-72
2023/08/23 04:39:12;;;;;;;4.83;3.17;;;;;;;;;;5088288;28;20062;-73
2023/08/23 04:41:37;;;;;;;6.03;3.55;;;;;;;;;;5078355;28;20721;-71
2023/08/23 04:44:02;;;;;;;5.03;3.45;;;;;;;;;;5077597;28;20096;-71
2023/08/23 04:46:28;;;;;;;5.03;3.58;;;;;;;;;;5086079;28;20021;-71
2023/08/23 04:48:53;;;;;;;5.20;3.37;;;;;;;;;;5065989;28;20028;-71
2023/08/23 04:51:18;;;;;;;6.13;3.90;;;;;;;;;;5082796;28;20297;-71
2023/08/23 04:53:43;;;;;;;8.13;3.23;;;;;;;;;;5082323;28;20784;-71
2023/08/23 04:56:09;;;;;;;4.77;3.20;;;;;;;;;;5084050;28;20687;-71
2023/08/23 04:58:34;;;;;;;5.97;3.33;;;;;;;;;;5070945;28;20379;-71
2023/08/23 05:01:03;;;;;;;4.67;3.07;;;;;;;;;;5071731;28;20336;-70
2023/08/23 05:03:29;;;;;;;10.88;3.13;;;;;;;;;;5065882;28;20278;-72
2023/08/23 05:05:57;;;;;;;5.75;3.42;;;;;;;;;;5037436;28;20056;-71
2023/08/23 05:08:23;;;;;;;6.40;3.10;;;;;;;;;;5031447;28;20106;-71
2023/08/23 05:10:52;;;;;;;5.03;3.30;;;;;;;;;;5031247;28;20858;-71
2023/08/23 05:13:18;;;;;;;4.80;3.10;;;;;;;;;;5033235;28;20012;-71
2023/08/23 05:15:43;;;;;;;5.75;2.75;;;;;;;;;;5063666;28;20024;-71
2023/08/23 05:18:08;;;;;;;4.10;2.83;;;;;;;;;;5089340;28;20047;-71
2023/08/23 05:20:35;;;;;;;4.70;3.08;;;;;;;;;;5090369;28;20274;-71
2023/08/23 05:23:00;;;;;;;4.32;3.03;;;;;;;;;;5088080;28;20038;-71
2023/08/23 05:25:26;;;;;;;6.53;3.30;;;;;;;;;;5089798;28;20024;-71
2023/08/23 05:27:51;;;;;;;5.88;3.00;;;;;;;;;;5087944;28;20021;-71
2023/08/23 05:30:17;;;;;;;4.05;2.83;;;;;;;;;;5075435;28;20571;-71
2023/08/23 05:32:42;;;;;;;6.60;3.47;;;;;;;;;;5080494;28;20104;-71
2023/08/23 05:35:07;;;;;;;5.43;3.50;;;;;;;;;;5075055;28;20757;-71
2023/08/23 05:37:32;;;;;;;4.78;3.28;;;;;;;;;;5084433;28;20678;-70
2023/08/23 05:39:58;;;;;;;6.95;3.63;;;;;;;;;;5086807;28;20421;-70
2023/08/23 05:42:23;;;;;;;7.15;3.65;;;;;;;;;;5088743;28;20413;-70
2023/08/23 05:44:49;;;;;;;6.78;3.92;;;;;;;;;;5086092;28;20058;-70
2023/08/23 05:47:14;;;;;;;15.25;5.68;;;;;;;;;;5089903;28;20037;-70
2023/08/23 05:49:39;;;;;;;7.47;4.93;;;;;;;;;;5088950;28;20020;-71
2023/08/23 05:52:04;;;;;;;10.53;5.47;;;;;;;;;;5088516;28;20373;-71
2023/08/23 05:54:31;;;;;;;7.65;5.78;;;;;;;;;;5078166;28;20788;-71
2023/08/23 05:56:59;;;;;;;10.75;5.72;;;;;;;;;;5087727;28;20028;-71
2023/08/23 05:59:24;;;;;;;8.13;6.05;;;;;;;;;;5083936;28;20016;-71
2023/08/23 06:01:49;;;;;;;9.67;5.57;;;;;;;;;;5088256;28;20046;-71
2023/08/23 06:04:15;;;;;;;8.32;6.18;;;;;;;;;;5083128;28;20344;-71
2023/08/23 06:06:40;;;;;;;8.20;6.07;;;;;;;;;;5087710;28;20027;-71
2023/08/23 06:09:05;;;;;;;9.20;6.50;;;;;;;;;;5081855;28;20302;-71
2023/08/23 06:11:30;;;;;;;10.57;7.90;;;;;;;;;;5062547;28;20274;-71
2023/08/23 06:13:56;;;;;;;11.27;7.60;;;;;;;;;;5092447;28;20364;-71
2023/08/23 06:16:21;;;;;;;12.45;8.32;;;;;;;;;;5093427;28;20652;-71
2023/08/23 06:18:46;;;;;;;10.68;8.88;;;;;;;;;;5079712;28;20028;-71
2023/08/23 06:21:11;;;;;;;11.13;9.47;;;;;;;;;;5086410;28;20020;-71
2023/08/23 06:23:43;;;;;;;19.05;13.38;;;;;;;;;;5073903;28;20283;-71
2023/08/23 06:26:08;;;;;;;16.10;12.43;;;;;;;;;;5073398;28;20028;-71
2023/08/23 06:28:33;;;;;;;14.68;12.00;;;;;;;;;;5068816;28;20031;-71
2023/08/23 06:30:59;;;;;;;14.13;12.63;;;;;;;;;;5092804;28;20379;-71
2023/08/23 06:33:24;;;;;;;15.53;12.47;;;;;;;;;;5091323;28;20274;-71
2023/08/23 06:35:49;;;;;;;17.00;14.27;;;;;;;;;;5084215;28;20270;-71
2023/08/23 06:38:15;;;;;;;21.87;14.50;;;;;;;;;;5087082;28;20278;-71
2023/08/23 06:40:42;;;;;;;16.23;14.38;;;;;;;;;;5084379;28;20297;-71
2023/08/23 06:43:07;;;;;;;15.60;13.98;;;;;;;;;;5085656;28;20026;-71
2023/08/23 06:45:32;;;;;;;15.82;14.07;;;;;;;;;;5084242;28;20020;-71
2023/08/23 06:47:57;;;;;;;17.63;13.67;;;;;;;;;;5087378;28;20386;-71
2023/08/23 06:50:23;;;;;;;15.87;13.27;;;;;;;;;;5087185;28;20322;-71
2023/08/23 06:52:48;;;;;;;16.30;11.97;;;;;;;;;;5091808;28;20270;-71
2023/08/23 06:55:13;;;;;;;16.73;11.73;;;;;;;;;;5072898;28;20271;-71
2023/08/23 06:57:39;;;;;;;16.38;11.95;;;;;;;;;;5084182;28;20274;-71
2023/08/23 07:00:05;;;;;;;14.00;10.50;;;;;;;;;;5073565;28;20029;-71
2023/08/23 07:02:30;;;;;;;17.70;10.63;;;;;;;;;;5072617;28;20028;-71
2023/08/23 07:04:55;;;;;;;13.13;8.88;;;;;;;;;;5074884;28;20144;-71
2023/08/23 07:07:21;;;;;;;13.07;9.45;;;;;;;;;;5090383;28;20028;-71
2023/08/23 07:09:47;;;;;;;10.63;8.90;;;;;;;;;;5079970;28;20074;-71
2023/08/23 07:12:12;;;;;;;11.10;7.82;;;;;;;;;;5083940;28;20466;-71
2023/08/23 07:14:37;;;;;;;10.55;9.05;;;;;;;;;;5085628;28;21444;-71
2023/08/23 07:17:02;;;;;;;12.87;9.27;;;;;;;;;;5087030;28;20034;-71
2023/08/23 07:19:28;;;;;;;12.13;9.17;;;;;;;;;;5084033;28;20259;-71
2023/08/23 07:21:53;;;;;;;10.37;8.30;;;;;;;;;;5086832;28;20293;-71
2023/08/23 07:24:18;;;;;;;13.70;9.00;;;;;;;;;;5074382;28;20342;-71
2023/08/23 07:26:43;;;;;;;12.02;8.38;;;;;;;;;;5075056;28;20289;-71
2023/08/23 07:29:11;;;;;;;14.07;9.57;;;;;;;;;;5073322;28;20387;-71
2023/08/23 07:31:37;;;;;;;19.67;9.48;;;;;;;;;;5082737;28;20308;-71
2023/08/23 07:34:02;;;;;;;12.90;9.23;;;;;;;;;;5073268;28;20029;-71
2023/08/23 07:36:27;;;;;;;16.95;10.23;;;;;;;;;;5080832;28;20118;-71
2023/08/23 07:38:52;;;;;;;15.53;10.37;;;;;;;;;;5079649;28;20032;-70
2023/08/23 07:41:18;;;;;;;21.30;11.70;;;;;;;;;;5083054;28;20284;-70
2023/08/23 07:43:43;;;;;;;21.05;11.50;;;;;;;;;;5079325;28;20274;-71
2023/08/23 07:46:08;;;;;;;14.43;9.25;;;;;;;;;;5064495;28;20020;-70
2023/08/23 07:48:33;;;;;;;14.70;9.73;;;;;;;;;;5034693;28;20133;-71
2023/08/23 07:51:04;;;;;;;11.75;9.43;;;;;;;;;;5036804;28;20166;-71
2023/08/23 07:53:29;;;;;;;15.15;10.00;;;;;;;;;;5036025;28;20026;-71
2023/08/23 07:55:55;;;;;;;12.38;9.57;;;;;;;;;;5056768;28;20569;-71
2023/08/23 07:58:20;;;;;;;14.52;10.10;;;;;;;;;;5075034;28;20107;-71
2023/08/23 08:00:45;;;;;;;21.63;10.13;;;;;;;;;;5071722;28;20162;-71
2023/08/23 08:03:11;;;;;;;18.77;9.75;;;;;;;;;;5072790;28;20029;-71
2023/08/23 08:05:37;;;;;;;15.88;9.93;;;;;;;;;;5071593;28;20055;-71
2023/08/23 08:08:03;;;;;;;13.93;9.32;;;;;;;;;;5072351;28;20452;-71
2023/08/23 08:10:31;;;;;;;13.25;8.60;;;;;;;;;;5071008;28;20472;-71
2023/08/23 08:12:58;;;;;;;13.20;7.70;;;;;;;;;;5090596;28;20110;-71
2023/08/23 08:15:23;;;;;;;12.15;7.85;;;;;;;;;;5090878;28;20528;-71
2023/08/23 08:17:51;;;;;;;13.45;8.27;;;;;;;;;;5091409;28;20036;-71
2023/08/23 08:20:16;;;;;;;14.70;8.13;;;;;;;;;;5090646;28;20387;-71
2023/08/23 08:22:42;;;;;;;11.68;8.88;;;;;;;;;;5071363;28;20024;-71
2023/08/23 08:25:08;;;;;;;13.43;7.80;;;;;;;;;;5076999;28;20020;-71
2023/08/23 08:27:33;;;;;;;12.48;9.05;;;;;;;;;;5071174;28;20016;-71
2023/08/23 08:29:59;;;;;;;11.07;8.17;;;;;;;;;;5071512;28;20044;-71
2023/08/23 08:32:24;;;;;;;12.20;8.18;;;;;;;;;;5084285;28;20357;-71
2023/08/23 08:34:49;;;;;;;10.97;7.10;;;;;;;;;;5084253;28;20028;-70
2023/08/23 08:37:15;;;;;;;10.85;7.32;;;;;;;;;;5084358;28;20757;-70
2023/08/23 08:39:40;;;;;;;12.25;7.85;;;;;;;;;;5084297;28;20036;-70
2023/08/23 08:42:06;;;;;;;9.90;6.85;;;;;;;;;;5090852;28;20487;-71
2023/08/23 08:44:31;;;;;;;11.35;7.25;;;;;;;;;;5090823;28;20034;-71
2023/08/23 08:46:56;;;;;;;8.25;6.25;;;;;;;;;;5084505;28;20036;-71
2023/08/23 08:49:22;;;;;;;14.88;6.53;;;;;;;;;;5071075;28;20120;-71
2023/08/23 08:51:47;;;;;;;11.43;7.10;;;;;;;;;;5089914;28;20024;-70
2023/08/23 08:54:15;;;;;;;9.98;5.97;;;;;;;;;;5078043;28;20814;-70
2023/08/23 08:56:40;;;;;;;9.60;6.32;;;;;;;;;;5075289;28;20027;-71
2023/08/23 08:59:06;;;;;;;10.88;5.60;;;;;;;;;;5090895;28;20382;-71
2023/08/23 09:01:34;;;;;;;10.15;6.70;;;;;;;;;;5090414;28;20028;-71
2023/08/23 09:04:00;;;;;;;9.70;6.05;;;;;;;;;;5090780;28;20028;-71
2023/08/23 09:06:26;;;;;;;10.95;7.47;;;;;;;;;;5071834;28;20024;-71
2023/08/23 09:08:52;;;;;;;9.27;5.43;;;;;;;;;;5076703;28;20039;-70
2023/08/23 09:11:17;;;;;;;11.15;6.70;;;;;;;;;;5088137;28;20024;-71
2023/08/23 09:13:43;;;;;;;13.90;6.90;;;;;;;;;;5085696;28;20035;-70
2023/08/23 09:16:08;;;;;;;11.07;6.57;;;;;;;;;;5086962;28;20313;-70
2023/08/23 09:18:33;;;;;;;11.77;7.00;;;;;;;;;;5058436;28;20300;-70
2023/08/23 09:20:58;;;;;;;12.90;6.30;;;;;;;;;;5057105;28;20278;-70
2023/08/23 09:23:24;;;;;;;9.77;7.13;;;;;;;;;;5032177;28;20883;-70
2023/08/23 09:25:49;;;;;;;11.07;6.35;;;;;;;;;;5044078;28;20266;-70
2023/08/23 09:28:15;;;;;;;14.05;7.30;;;;;;;;;;5037673;28;20019;-70
2023/08/23 09:30:40;;;;;;;14.73;8.35;;;;;;;;;;5043280;28;20024;-70
2023/08/23 09:33:08;;;;;;;10.77;7.63;;;;;;;;;;5059850;28;20025;-70
2023/08/23 09:35:34;;;;;;;12.55;7.25;;;;;;;;;;5085184;28;20099;-70
2023/08/23 09:37:59;;;;;;;11.27;6.97;;;;;;;;;;5085894;28;20063;-70
2023/08/23 09:40:26;;;;;;;15.10;7.10;;;;;;;;;;5086903;28;20024;-70
2023/08/23 09:42:52;;;;;;;12.35;7.10;;;;;;;;;;5080709;28;20521;-71
2023/08/23 09:45:19;;;;;;;11.95;7.35;;;;;;;;;;5085622;28;20079;-70
2023/08/23 09:47:54;;;;;;;12.20;5.70;;;;;;;;;;5087094;28;20062;-70
2023/08/23 09:50:21;;;;;;;12.45;7.28;;;;;;;;;;5080112;28;20024;-70
2023/08/23 09:52:49;;;;;;;11.35;5.82;;;;;;;;;;5089841;28;20028;-70
2023/08/23 09:55:26;;;;;;;9.35;6.90;;;;;;;;;;5078387;28;20103;-67
2023/08/23 09:58:00;;;;;;;11.20;6.57;;;;;;;;;;5090920;28;20071;-71
2023/08/23 10:00:30;;;;;;;10.73;5.75;;;;;;;;;;5092648;28;20028;-69
2023/08/23 10:03:13;;;;;;;11.02;5.55;;;;;;;;;;5089084;28;20056;-71
2023/08/23 10:05:39;;;;;;;10.65;5.07;;;;;;;;;;5092049;28;20047;-70
2023/08/23 10:08:04;;;;;;;9.80;4.40;;;;;;;;;;5090273;28;20024;-70
2023/08/23 10:10:30;;;;;;;8.10;4.43;;;;;;;;;;5084144;28;20467;-70
2023/08/23 10:13:04;;;;;;;7.15;3.80;;;;;;;;;;5077168;28;20044;-70
2023/08/23 10:15:34;;;;;;;5.70;3.83;;;;;;;;;;5085899;28;20035;-70
2023/08/23 10:18:00;;;;;;;5.70;3.03;;;;;;;;;;5080379;28;20095;-71
2023/08/23 10:20:25;;;;;;;6.10;3.10;;;;;;;;;;5073370;28;20483;-71
2023/08/23 10:22:57;;;;;;;6.53;3.00;;;;;;;;;;5072720;28;20107;-70
2023/08/23 10:25:22;;;;;;;6.50;2.50;;;;;;;;;;5069605;28;20029;-70
2023/08/23 10:27:49;;;;;;;4.13;2.50;;;;;;;;;;5073401;28;20036;-70
2023/08/23 10:30:15;;;;;;;4.13;2.63;;;;;;;;;;5084272;28;20059;-70
2023/08/23 10:32:43;;;;;;;9.60;2.58;;;;;;;;;;5076969;28;20078;-70
2023/08/23 10:35:22;;;;;;;4.93;2.63;;;;;;;;;;5073738;28;20028;-70
2023/08/23 10:37:47;;;;;;;5.38;3.05;;;;;;;;;;5085172;28;20028;-71
2023/08/23 10:40:17;;;;;;;8.93;2.77;;;;;;;;;;5074853;28;20531;-71
2023/08/23 10:42:42;;;;;;;4.80;2.38;;;;;;;;;;5084640;28;20371;-70
2023/08/23 10:45:09;;;;;;;4.30;2.50;;;;;;;;;;5075056;28;20086;-70
2023/08/23 10:47:35;;;;;;;5.07;2.40;;;;;;;;;;5084188;28;20027;-71
2023/08/23 10:50:02;;;;;;;7.47;2.97;;;;;;;;;;5075503;28;20043;-71
2023/08/23 10:52:27;;;;;;;7.13;3.28;;;;;;;;;;5086835;28;20056;-70
2023/08/23 10:54:53;;;;;;;5.35;2.80;;;;;;;;;;5072304;28;20428;-70
2023/08/23 10:57:18;;;;;;;6.72;3.10;;;;;;;;;;5076026;28;20024;-71
2023/08/23 10:59:43;;;;;;;5.83;3.23;;;;;;;;;;5036899;28;20024;-70
2023/08/23 11:02:09;;;;;;;4.60;2.75;;;;;;;;;;5037900;28;20282;-70
2023/08/23 11:04:34;;;;;;;8.47;3.50;;;;;;;;;;5036680;28;20024;-69
2023/08/23 11:06:59;;;;;;;6.90;3.37;;;;;;;;;;5045337;28;20274;-71
2023/08/23 11:09:24;;;;;;;8.20;3.38;;;;;;;;;;5077502;28;20297;-71
2023/08/23 11:11:50;;;;;;;6.82;3.10;;;;;;;;;;5090257;28;20093;-70
2023/08/23 11:14:15;;;;;;;4.53;2.28;;;;;;;;;;5090887;28;20111;-70
2023/08/23 11:16:41;;;;;;;2.60;1.20;;;;;;;;;;5090751;28;20047;-70
2023/08/23 11:19:07;;;;;;;2.88;1.30;;;;;;;;;;5090639;28;20016;-70
2023/08/23 11:21:32;;;;;;;2.25;1.40;;;;;;;;;;5089638;28;20024;-70
2023/08/23 11:24:01;;;;;;;2.00;1.05;;;;;;;;;;5088676;28;20111;-71
2023/08/23 11:26:26;;;;;;;2.38;1.30;;;;;;;;;;5078518;28;20023;-69
2023/08/23 11:28:52;;;;;;;2.20;0.93;;;;;;;;;;5078771;28;20486;-70
2023/08/23 11:31:17;;;;;;;2.50;1.10;;;;;;;;;;5080460;28;20309;-69
2023/08/23 11:33:42;;;;;;;3.37;1.07;;;;;;;;;;5078148;28;20325;-69
2023/08/23 11:36:09;;;;;;;4.00;1.03;;;;;;;;;;5079441;28;20745;-71
2023/08/23 11:38:34;;;;;;;2.55;1.13;;;;;;;;;;5082735;28;20320;-70
2023/08/23 11:41:00;;;;;;;2.05;1.02;;;;;;;;;;5078343;28;20394;-70
2023/08/23 11:43:26;;;;;;;2.63;1.20;;;;;;;;;;5078800;28;20020;-71
2023/08/23 11:45:52;;;;;;;4.18;1.30;;;;;;;;;;5077580;28;20035;-71
2023/08/23 11:48:17;;;;;;;1.77;0.85;;;;;;;;;;5078773;28;20021;-71
2023/08/23 11:50:43;;;;;;;2.05;0.90;;;;;;;;;;5075843;28;20407;-71
2023/08/23 11:53:09;;;;;;;2.42;1.17;;;;;;;;;;5084768;28;20047;-70
2023/08/23 11:55:34;;;;;;;1.77;0.70;;;;;;;;;;5078183;28;20032;-70
2023/08/23 11:58:02;;;;;;;2.72;0.70;;;;;;;;;;5089357;28;20270;-69
2023/08/23 12:00:27;;;;;;;1.27;0.60;;;;;;;;;;5078620;28;20489;-69
2023/08/23 12:02:53;;;;;;;3.30;0.50;;;;;;;;;;5088717;28;20028;-70
2023/08/23 12:05:19;;;;;;;1.83;0.82;;;;;;;;;;5090684;28;20015;-70
2023/08/23 12:07:45;;;;;;;6.60;0.75;;;;;;;;;;5089573;28;20032;-70
2023/08/23 12:10:11;;;;;;;1.50;0.70;;;;;;;;;;5082002;28;20020;-70
2023/08/23 12:12:36;;;;;;;1.98;0.93;;;;;;;;;;5086413;28;20111;-70
2023/08/23 12:15:02;;;;;;;1.60;0.73;;;;;;;;;;5090539;28;20040;-70
2023/08/23 12:17:28;;;;;;;2.15;1.08;;;;;;;;;;5070750;28;20881;-71
2023/08/23 12:19:53;;;;;;;1.85;0.77;;;;;;;;;;5041653;28;20020;-69
2023/08/23 12:22:19;;;;;;;1.70;0.90;;;;;;;;;;5039564;28;20131;-71
2023/08/23 12:24:44;;;;;;;1.75;0.77;;;;;;;;;;5029238;28;20030;-70
2023/08/23 12:27:09;;;;;;;1.88;0.90;;;;;;;;;;5037633;28;20091;-69
2023/08/23 12:29:35;;;;;;;2.60;1.00;;;;;;;;;;5041647;28;20036;-68
2023/08/23 12:32:00;;;;;;;2.35;1.10;;;;;;;;;;5040900;28;21211;-69
2023/08/23 12:34:25;;;;;;;2.60;1.07;;;;;;;;;;5068793;28;20445;-71
2023/08/23 12:36:51;;;;;;;6.17;1.30;;;;;;;;;;5069868;28;20339;-69
2023/08/23 12:39:16;;;;;;;2.58;0.85;;;;;;;;;;5078711;28;20259;-70
2023/08/23 12:41:41;;;;;;;2.40;1.03;;;;;;;;;;5075240;28;20044;-70
2023/08/23 12:44:07;;;;;;;2.05;1.00;;;;;;;;;;5079393;28;20027;-69
2023/08/23 12:46:32;;;;;;;1.93;0.90;;;;;;;;;;5087241;28;20021;-70
2023/08/23 12:48:57;;;;;;;2.50;0.60;;;;;;;;;;5083222;28;20161;-68
2023/08/23 12:51:24;;;;;;;1.20;0.53;;;;;;;;;;5079555;28;20032;-70
2023/08/23 12:53:49;;;;;;;3.47;1.08;;;;;;;;;;5079393;28;20056;-70
2023/08/23 12:56:15;;;;;;;2.10;0.70;;;;;;;;;;5087903;28;20098;-70
2023/08/23 12:58:40;;;;;;;1.77;0.80;;;;;;;;;;5094164;28;20357;-69
2023/08/23 13:01:05;;;;;;;5.87;1.10;;;;;;;;;;5092751;28;20028;-69
2023/08/23 13:03:30;;;;;;;1.13;0.50;;;;;;;;;;5093622;28;20042;-70
2023/08/23 13:05:56;;;;;;;2.23;0.90;;;;;;;;;;5093123;28;20391;-69
2023/08/23 13:08:21;;;;;;;1.47;0.70;;;;;;;;;;5093807;28;20280;-69
2023/08/23 13:10:46;;;;;;;1.00;0.50;;;;;;;;;;5089549;28;20146;-70
2023/08/23 13:13:11;;;;;;;4.00;0.97;;;;;;;;;;5090415;28;20012;-70
2023/08/23 13:15:37;;;;;;;2.53;0.83;;;;;;;;;;5088261;28;20070;-68
2023/08/23 13:18:03;;;;;;;1.63;0.65;;;;;;;;;;5089899;28;20024;-69
2023/08/23 13:20:28;;;;;;;1.35;0.63;;;;;;;;;;5090527;28;20112;-69
2023/08/23 13:22:55;;;;;;;3.80;1.25;;;;;;;;;;5091158;28;20099;-69
2023/08/23 13:25:20;;;;;;;1.95;0.70;;;;;;;;;;5068067;28;20020;-69
2023/08/23 13:27:45;;;;;;;2.63;0.73;;;;;;;;;;5032954;28;20059;-69
2023/08/23 13:30:11;;;;;;;1.83;0.88;;;;;;;;;;5042548;28;20349;-69
2023/08/23 13:32:36;;;;;;;1.73;0.80;;;;;;;;;;5033199;28;20032;-68
2023/08/23 13:35:01;;;;;;;2.13;0.93;;;;;;;;;;5059908;28;20464;-68
2023/08/23 13:37:27;;;;;;;2.53;1.00;;;;;;;;;;5081268;28;20319;-69
2023/08/23 13:39:52;;;;;;;1.77;0.90;;;;;;;;;;5091118;28;20314;-70
2023/08/23 13:42:17;;;;;;;1.70;0.70;;;;;;;;;;5073686;28;20644;-68
2023/08/23 13:44:42;;;;;;;1.90;0.83;;;;;;;;;;5059155;28;20307;-68
2023/08/23 13:47:08;;;;;;;4.00;1.00;;;;;;;;;;5042843;28;20063;-68
2023/08/23 13:49:33;;;;;;;2.57;0.70;;;;;;;;;;5037789;28;20876;-69
2023/08/23 13:51:58;;;;;;;1.70;0.80;;;;;;;;;;5030815;28;20132;-67
2023/08/23 13:54:24;;;;;;;1.77;0.93;;;;;;;;;;5075064;28;20473;-68
2023/08/23 13:56:49;;;;;;;3.23;1.17;;;;;;;;;;5089759;28;20035;-68
2023/08/23 13:59:14;;;;;;;1.63;0.70;;;;;;;;;;5092183;28;20602;-68
2023/08/23 14:01:39;;;;;;;1.52;0.60;;;;;;;;;;5089526;28;20024;-70
2023/08/23 14:04:05;;;;;;;1.50;0.70;;;;;;;;;;5091358;28;20020;-69
2023/08/23 14:06:30;;;;;;;2.00;0.93;;;;;;;;;;5074011;28;20960;-69
2023/08/23 14:08:55;;;;;;;2.47;1.15;;;;;;;;;;5046917;28;20029;-69
2023/08/23 14:11:21;;;;;;;2.13;0.68;;;;;;;;;;5043173;28;20805;-69
2023/08/23 14:13:46;;;;;;;2.30;0.80;;;;;;;;;;5042021;28;20909;-68
2023/08/23 14:16:11;;;;;;;2.60;0.88;;;;;;;;;;5038185;28;20502;-68
2023/08/23 14:18:40;;;;;;;1.40;0.60;;;;;;;;;;5045221;28;20757;-68
2023/08/23 14:21:07;;;;;;;2.78;0.88;;;;;;;;;;5084791;28;20024;-69
2023/08/23 14:23:32;;;;;;;2.30;0.85;;;;;;;;;;5078085;28;20024;-68
2023/08/23 14:26:01;;;;;;;2.37;0.90;;;;;;;;;;5077035;28;20039;-69
2023/08/23 14:28:26;;;;;;;3.45;0.95;;;;;;;;;;5073296;28;20031;-67
2023/08/23 14:30:54;;;;;;;2.60;0.73;;;;;;;;;;5078072;28;20032;-69